createdAt,value
2019-06-07T00:00:53.894Z,16.08
2019-06-07T00:03:41.001Z,14.87
2019-06-07T00:06:43.382Z,14.25
2019-06-07T00:18:51.377Z,13.32
2019-06-07T00:22:13.797Z,14.13
2019-06-07T00:24:26.737Z,14.20
2019-06-07T00:27:15.129Z,13.77
2019-06-07T00:30:29.577Z,14.63
2019-06-07T00:32:49.825Z,14.77
2019-06-07T00:35:37.739Z,14.80
2019-06-07T00:38:25.086Z,14.38
2019-06-07T00:44:23.255Z,13.23
2019-06-07T00:47:08.876Z,14.95
2019-06-07T00:49:57.606Z,13.85
2019-06-07T00:58:40.160Z,15.48
2019-06-07T01:01:29.489Z,14.55
2019-06-07T01:04:19.444Z,14.25
2019-06-07T01:07:06.399Z,17.02
2019-06-07T01:09:54.190Z,14.07
2019-06-07T01:28:21.388Z,12.37
2019-06-07T01:31:17.030Z,12.48
2019-06-07T01:34:07.954Z,13.25
2019-06-07T01:36:54.857Z,12.85
2019-06-07T01:45:54.386Z,18.37
2019-06-07T01:51:48.774Z,15.80
2019-06-07T01:54:58.350Z,15.90
2019-06-07T01:57:38.030Z,15.52
2019-06-07T02:00:14.572Z,15.43
2019-06-07T02:09:13.630Z,16.25
2019-06-07T02:15:07.350Z,16.48
2019-06-07T02:17:58.647Z,16.20
2019-06-07T02:20:46.478Z,15.27
2019-06-07T02:23:33.909Z,15.38
2019-06-07T02:38:47.294Z,16.37
2019-06-07T02:41:39.231Z,17.12
2019-06-07T02:44:25.865Z,17.35
2019-06-07T02:47:11.278Z,19.80
2019-06-07T02:49:58.601Z,20.10
2019-06-07T02:52:49.912Z,19.80
2019-06-07T02:56:33.127Z,17.20
2019-06-07T02:58:31.172Z,19.70
2019-06-07T03:01:15.615Z,17.00
2019-06-07T03:04:02.947Z,16.48
2019-06-07T03:06:50.154Z,16.33
2019-06-07T03:09:48.682Z,16.48
2019-06-07T03:12:39.234Z,15.35
2019-06-07T03:25:06.043Z,17.12
2019-06-07T03:27:53.690Z,16.77
2019-06-07T03:31:00.348Z,16.92
2019-06-07T03:33:45.309Z,19.70
2019-06-07T03:36:29.828Z,16.80
2019-06-07T03:39:20.309Z,17.23
2019-06-07T03:42:08.576Z,16.48
2019-06-07T03:44:54.267Z,19.15
2019-06-07T03:47:48.413Z,18.05
2019-06-07T03:50:38.817Z,17.75
2019-06-07T04:02:42.510Z,15.90
2019-06-07T04:05:32.878Z,19.67
2019-06-07T04:08:18.054Z,18.02
2019-06-07T04:11:05.893Z,16.62
2019-06-07T04:13:53.720Z,17.15
2019-06-07T04:16:44.594Z,17.30
2019-06-07T04:19:37.289Z,16.95
2019-06-07T04:22:28.847Z,17.15
2019-06-07T04:25:21.019Z,16.52
2019-06-07T04:31:15.391Z,17.08
2019-06-07T04:34:03.461Z,16.70
2019-06-07T04:36:58.806Z,16.45
2019-06-07T04:39:41.680Z,20.05
2019-06-07T04:42:24.191Z,17.15
2019-06-07T04:45:32.373Z,17.55
2019-06-07T04:51:04.942Z,16.45
2019-06-07T04:53:55.616Z,17.87
2019-06-07T04:56:50.224Z,16.75
2019-06-07T05:02:29.551Z,16.23
2019-06-07T05:05:23.340Z,16.50
2019-06-07T05:11:23.598Z,15.18
2019-06-07T05:20:22.532Z,13.82
2019-06-07T05:23:10.747Z,13.68
2019-06-07T05:29:12.734Z,12.63
2019-06-07T05:31:59.509Z,13.82
2019-06-07T05:34:47.264Z,13.73
2019-06-07T05:37:33.930Z,13.62
2019-06-07T05:40:21.391Z,13.77
2019-06-07T05:43:08.024Z,12.65
2019-06-07T05:45:59.025Z,12.30
2019-06-07T05:48:45.844Z,13.02
2019-06-07T05:51:34.622Z,12.45
2019-06-07T05:54:20.695Z,12.55
2019-06-07T06:00:14.134Z,12.50
2019-06-07T06:06:10.295Z,12.52
2019-06-07T06:09:13.445Z,12.93
2019-06-07T06:11:58.616Z,12.48
2019-06-07T06:14:32.418Z,11.10
2019-06-07T06:17:19.865Z,12.80
2019-06-07T06:20:06.809Z,14.73
2019-06-07T06:22:54.243Z,14.27
2019-06-07T06:25:45.068Z,14.65
2019-06-07T06:28:29.149Z,12.52
2019-06-07T06:31:16.597Z,12.63
2019-06-07T06:34:03.284Z,13.25
2019-06-07T06:36:51.270Z,12.55
2019-06-07T06:39:39.601Z,13.13
2019-06-07T06:42:27.128Z,14.40
2019-06-07T06:45:13.930Z,11.98
2019-06-07T06:48:00.889Z,13.30
2019-06-07T06:53:54.108Z,13.60
2019-06-07T06:56:44.862Z,15.07
2019-06-07T06:59:39.714Z,13.25
2019-06-07T07:02:17.314Z,12.82
2019-06-07T07:05:04.168Z,12.90
2019-06-07T07:10:58.219Z,13.85
2019-06-07T07:13:56.893Z,13.70
2019-06-07T07:16:45.781Z,13.23
2019-06-07T07:19:31.451Z,13.27
2019-06-07T07:25:25.081Z,13.18
2019-06-07T07:28:12.011Z,13.38
2019-06-07T07:30:59.851Z,14.25
2019-06-07T07:36:39.203Z,14.00
2019-06-07T07:39:21.741Z,13.70
2019-06-07T07:42:20.827Z,13.05
2019-06-07T07:45:09.986Z,13.32
2019-06-07T07:48:13.305Z,12.90
2019-06-07T07:53:15.941Z,13.30
2019-06-07T07:56:02.955Z,12.77
2019-06-07T07:58:55.037Z,13.13
2019-06-07T08:01:37.658Z,12.40
2019-06-07T08:05:12.054Z,14.25
2019-06-07T08:07:12.478Z,14.25
2019-06-07T08:10:03.585Z,12.63
2019-06-07T08:13:12.884Z,11.98
2019-06-07T08:15:34.267Z,11.45
2019-06-07T08:18:21.406Z,11.80
2019-06-07T08:21:23.143Z,12.82
2019-06-07T08:23:58.257Z,10.43
2019-06-07T08:26:42.110Z,9.48
2019-06-07T08:29:44.497Z,10.13
2019-06-07T08:32:16.862Z,12.57
2019-06-07T08:35:06.525Z,11.85
2019-06-07T08:40:38.281Z,10.10
2019-06-07T08:43:26.316Z,11.30
2019-06-07T08:46:12.926Z,9.85
2019-06-07T08:49:04.265Z,9.82
2019-06-07T08:51:46.382Z,8.93
2019-06-07T08:54:33.571Z,9.05
2019-06-07T08:57:21.862Z,7.82
2019-06-07T09:00:42.206Z,7.90
2019-06-07T09:02:58.880Z,8.80
2019-06-07T09:05:43.756Z,8.43
2019-06-07T09:08:31.163Z,8.00
2019-06-07T09:11:17.898Z,8.90
2019-06-07T09:14:08.766Z,8.95
2019-06-07T09:16:55.394Z,10.27
2019-06-07T09:19:39.482Z,10.07
2019-06-07T09:22:26.292Z,7.00
2019-06-07T09:25:21.325Z,9.07
2019-06-07T09:28:15.804Z,10.07
2019-06-07T09:30:53.587Z,9.43
2019-06-07T09:33:40.967Z,8.55
2019-06-07T09:36:28.196Z,8.73
2019-06-07T09:39:18.662Z,8.63
2019-06-07T09:42:09.954Z,8.65
2019-06-07T09:45:30.736Z,9.43
2019-06-07T09:49:08.452Z,9.27
2019-06-07T09:51:18.056Z,8.65
2019-06-07T09:53:52.587Z,9.38
2019-06-07T09:56:40.510Z,9.70
2019-06-07T09:59:28.297Z,9.90
2019-06-07T10:02:14.754Z,9.95
2019-06-07T10:05:16.513Z,10.02
2019-06-07T10:08:16.013Z,10.80
2019-06-07T10:10:51.063Z,11.05
2019-06-07T10:13:39.173Z,10.50
2019-06-07T10:16:26.210Z,10.02
2019-06-07T10:19:13.848Z,10.02
2019-06-07T10:22:01.375Z,9.77
2019-06-07T10:24:47.768Z,8.48
2019-06-07T10:27:35.094Z,9.73
2019-06-07T10:30:23.327Z,9.15
2019-06-07T10:33:10.656Z,9.07
2019-06-07T10:35:57.556Z,8.13
2019-06-07T10:38:47.559Z,9.00
2019-06-07T10:41:35.071Z,7.07
2019-06-07T10:44:22.293Z,8.50
2019-06-07T10:47:10.084Z,8.45
2019-06-07T10:49:57.013Z,8.57
2019-06-07T10:52:44.152Z,8.93
2019-06-07T10:55:30.958Z,6.95
2019-06-07T10:58:18.073Z,7.75
2019-06-07T11:01:07.255Z,7.65
2019-06-07T11:03:53.240Z,7.55
2019-06-07T11:06:40.218Z,6.65
2019-06-07T11:09:27.045Z,6.87
2019-06-07T11:12:17.344Z,7.78
2019-06-07T11:15:08.841Z,6.78
2019-06-07T11:17:54.524Z,6.95
2019-06-07T11:20:41.657Z,6.57
2019-06-07T11:23:28.857Z,6.18
2019-06-07T11:26:15.770Z,6.97
2019-06-07T11:29:03.116Z,7.55
2019-06-07T11:31:50.431Z,7.65
2019-06-07T11:34:37.549Z,6.87
2019-06-07T11:37:24.782Z,6.68
2019-06-07T11:40:34.893Z,7.62
2019-06-07T11:42:59.304Z,8.15
2019-06-07T11:45:47.239Z,7.35
2019-06-07T11:48:34.164Z,7.75
2019-06-07T11:51:21.561Z,8.07
2019-06-07T11:54:09.649Z,8.30
2019-06-07T11:56:55.987Z,7.90
2019-06-07T11:59:43.317Z,8.10
2019-06-07T12:02:30.544Z,8.35
2019-06-07T12:05:20.119Z,8.30
2019-06-07T12:08:04.574Z,7.62
2019-06-07T12:10:51.795Z,7.03
2019-06-07T12:13:39.219Z,7.87
2019-06-07T12:16:26.671Z,6.90
2019-06-07T12:19:13.737Z,6.22
2019-06-07T12:22:00.856Z,8.18
2019-06-07T12:24:48.120Z,7.90
2019-06-07T12:27:35.032Z,7.70
2019-06-07T12:30:27.373Z,6.47
2019-06-07T12:33:08.823Z,6.37
2019-06-07T12:35:56.105Z,5.85
2019-06-07T12:38:43.059Z,6.10
2019-06-07T12:41:30.158Z,5.28
2019-06-07T12:44:18.605Z,5.55
2019-06-07T12:47:04.494Z,5.03
2019-06-07T12:49:53.373Z,4.95
2019-06-07T12:52:40.368Z,4.35
2019-06-07T12:55:27.523Z,4.47
2019-06-07T12:58:15.807Z,5.62
2019-06-07T13:01:02.062Z,4.35
2019-06-07T13:03:49.332Z,4.70
2019-06-07T13:06:38.041Z,4.05
2019-06-07T13:09:24.440Z,4.80
2019-06-07T13:12:12.879Z,5.00
2019-06-07T13:14:59.644Z,4.60
2019-06-07T13:17:46.421Z,4.80
2019-06-07T13:20:34.125Z,4.85
2019-06-07T13:23:22.602Z,4.87
2019-06-07T13:26:08.771Z,4.22
2019-06-07T13:28:55.883Z,4.68
2019-06-07T13:31:43.827Z,4.57
2019-06-07T13:34:30.582Z,4.28
2019-06-07T13:37:19.529Z,4.20
2019-06-07T13:40:04.517Z,4.32
2019-06-07T13:42:54.465Z,4.80
2019-06-07T13:45:41.468Z,3.83
2019-06-07T13:48:28.179Z,3.78
2019-06-07T13:51:15.441Z,3.60
2019-06-07T13:54:02.938Z,4.32
2019-06-07T13:57:01.949Z,4.30
2019-06-07T13:59:36.996Z,3.50
2019-06-07T14:02:29.856Z,4.70
2019-06-07T14:05:15.890Z,4.22
2019-06-07T14:08:12.421Z,4.12
2019-06-07T14:10:59.167Z,4.10
2019-06-07T14:13:46.240Z,4.00
2019-06-07T14:19:38.587Z,3.90
2019-06-07T14:25:50.396Z,3.60
2019-06-07T14:28:37.317Z,4.05
2019-06-07T14:31:26.306Z,4.40
2019-06-07T14:34:16.870Z,4.03
2019-06-07T14:40:10.048Z,3.55
2019-06-07T14:42:58.060Z,3.45
2019-06-07T14:45:44.657Z,3.50
2019-06-07T14:48:32.718Z,3.20
2019-06-07T14:51:18.400Z,3.60
2019-06-07T14:54:05.195Z,3.58
2019-06-07T14:56:53.659Z,3.47
2019-06-07T14:59:40.447Z,3.58
2019-06-07T15:02:28.393Z,3.95
2019-06-07T15:05:14.088Z,3.80
2019-06-07T15:08:02.329Z,3.70
2019-06-07T15:10:49.752Z,3.90
2019-06-07T15:13:51.186Z,3.65
2019-06-07T15:16:38.422Z,3.67
2019-06-07T15:19:26.629Z,3.40
2019-06-07T15:22:14.090Z,3.50
2019-06-07T15:25:00.914Z,3.78
2019-06-07T15:27:55.058Z,3.60
2019-06-07T15:30:43.413Z,4.25
2019-06-07T15:33:31.748Z,4.30
2019-06-07T15:39:23.893Z,4.90
2019-06-07T15:42:12.428Z,4.72
2019-06-07T15:44:59.103Z,4.35
2019-06-07T15:47:46.354Z,3.72
2019-06-07T15:50:34.381Z,4.47
2019-06-07T15:53:24.951Z,4.80
2019-06-07T15:59:17.964Z,4.85
2019-06-07T16:02:04.967Z,4.95
2019-06-07T16:04:52.895Z,5.43
2019-06-07T16:07:40.456Z,4.80
2019-06-07T16:10:26.427Z,5.62
2019-06-07T16:13:13.440Z,4.87
2019-06-07T16:16:00.464Z,5.95
2019-06-07T16:18:48.602Z,6.20
2019-06-07T16:21:37.303Z,5.55
2019-06-07T16:24:23.057Z,6.70
2019-06-07T16:27:10.361Z,6.70
2019-06-07T16:29:57.675Z,6.45
2019-06-07T16:32:46.308Z,6.57
2019-06-07T16:35:33.419Z,7.60
2019-06-07T16:38:24.840Z,7.15
2019-06-07T16:41:12.060Z,7.62
2019-06-07T16:43:59.099Z,7.10
2019-06-07T16:46:46.299Z,7.18
2019-06-07T16:49:33.951Z,7.30
2019-06-07T16:52:20.830Z,7.47
2019-06-07T16:55:07.769Z,7.43
2019-06-07T16:57:54.768Z,7.32
2019-06-07T17:00:42.231Z,7.37
2019-06-07T17:03:28.802Z,7.70
2019-06-07T17:06:16.523Z,6.90
2019-06-07T17:09:03.838Z,6.60
2019-06-07T17:11:50.767Z,6.97
2019-06-07T17:14:40.455Z,5.80
2019-06-07T17:17:27.246Z,6.40
2019-06-07T17:23:20.615Z,5.15
2019-06-07T17:26:08.027Z,5.57
2019-06-07T17:28:56.644Z,5.43
2019-06-07T17:34:50.294Z,4.97
2019-06-07T17:37:37.240Z,4.47
2019-06-07T17:40:24.315Z,4.78
2019-06-07T17:43:11.474Z,4.32
2019-06-07T17:45:58.541Z,4.25
2019-06-07T17:48:46.045Z,4.15
2019-06-07T17:51:33.335Z,4.90
2019-06-07T17:57:26.299Z,4.25
2019-06-07T18:03:19.466Z,4.30
2019-06-07T18:06:07.420Z,3.70
2019-06-07T18:08:54.554Z,4.57
2019-06-07T18:11:43.921Z,4.43
2019-06-07T18:14:35.643Z,4.37
2019-06-07T18:17:33.702Z,4.43
2019-06-07T18:23:13.714Z,5.30
2019-06-07T18:26:14.194Z,5.10
2019-06-07T18:29:01.103Z,6.07
2019-06-07T18:31:48.767Z,5.95
2019-06-07T18:34:35.464Z,5.75
2019-06-07T18:37:28.533Z,6.35
2019-06-07T18:40:15.749Z,5.57
2019-06-07T18:43:04.093Z,5.70
2019-06-07T18:45:51.573Z,6.47
2019-06-07T18:48:38.615Z,6.28
2019-06-07T18:51:26.062Z,5.87
2019-06-07T18:54:13.492Z,6.12
2019-06-07T18:57:03.273Z,6.40
2019-06-07T18:59:50.238Z,6.57
2019-06-07T19:02:37.370Z,6.72
2019-06-07T19:05:24.616Z,7.07
2019-06-07T19:12:19.495Z,6.80
2019-06-07T19:15:12.444Z,6.78
2019-06-07T19:18:00.925Z,6.05
2019-06-07T19:24:50.020Z,6.65
2019-06-07T19:27:39.916Z,6.53
2019-06-07T19:30:26.939Z,6.43
2019-06-07T19:33:14.120Z,6.60
2019-06-07T19:36:01.750Z,7.60
2019-06-07T19:38:48.764Z,6.75
2019-06-07T19:41:36.314Z,7.10
2019-06-07T19:44:23.624Z,7.05
2019-06-07T19:47:11.358Z,7.07
2019-06-07T19:49:58.846Z,7.37
2019-06-07T19:52:45.792Z,8.02
2019-06-07T19:58:39.479Z,8.70
2019-06-07T20:01:26.694Z,8.50
2019-06-07T20:04:14.705Z,8.50
2019-06-07T20:07:03.976Z,9.27
2019-06-07T20:09:58.708Z,9.00
2019-06-07T20:12:45.033Z,9.38
2019-06-07T20:15:50.955Z,10.48
2019-06-07T20:18:53.274Z,9.93
2019-06-07T20:21:49.567Z,10.07
2019-06-07T20:28:32.282Z,10.23
2019-06-07T20:31:19.219Z,10.10
2019-06-07T20:34:06.512Z,10.18
2019-06-07T20:36:53.463Z,10.80
2019-06-07T20:39:40.877Z,10.95
2019-06-07T20:42:28.321Z,13.13
2019-06-07T20:45:15.743Z,12.15
2019-06-07T20:48:04.271Z,10.90
2019-06-07T20:50:52.532Z,12.25
2019-06-07T20:53:45.076Z,11.15
2019-06-07T20:56:34.193Z,10.70
2019-06-07T20:59:21.730Z,11.70
2019-06-07T21:02:14.257Z,11.23
2019-06-07T21:05:01.444Z,11.32
2019-06-07T21:07:48.894Z,10.93
2019-06-07T21:14:38.526Z,10.70
2019-06-07T21:17:25.542Z,13.13
2019-06-07T21:20:14.478Z,12.75
2019-06-07T21:27:09.520Z,13.95
2019-06-07T21:34:07.651Z,13.32
2019-06-07T21:36:50.922Z,14.25
2019-06-07T21:39:37.080Z,12.02
2019-06-07T21:42:25.586Z,11.93
2019-06-07T22:47:46.033Z,5.03
2019-06-07T22:51:22.883Z,4.57
2019-06-07T22:54:31.886Z,3.40
2019-06-07T22:57:22.286Z,3.00
2019-06-07T23:00:12.235Z,2.72
2019-06-07T23:02:56.538Z,3.20
2019-06-07T23:05:51.207Z,3.00
2019-06-07T23:12:58.367Z,2.65
2019-06-07T23:15:46.814Z,2.12
2019-06-07T23:21:39.993Z,2.30
2019-06-07T23:24:27.414Z,2.35
2019-06-07T23:27:16.444Z,2.17
2019-06-07T23:30:08.417Z,1.83
2019-06-07T23:32:50.290Z,1.55
2019-06-07T23:35:37.426Z,1.77
2019-06-07T23:38:24.369Z,1.80
2019-06-07T23:41:11.582Z,1.30
2019-06-07T23:43:58.525Z,1.20
2019-06-07T23:50:55.315Z,1.17
2019-06-07T23:54:52.498Z,0.90
